Time;durP1;ratioP1;P1;durP2;ratioP2;P2;SDS_P1;SDS_P2;PMS_P1;PMS_P2;Temp;Humidity;BMP_temperature;BMP_pressure;BME280_temperature;BME280_humidity;BME280_pressure;Samples;Min_cycle;Max_cycle;Signal;HPM_P1;HPM_P2
2021/12/10 00:00:47;;;;;;;39.03;22.33;;;4.30;91.90;;;;;;4917790;29;20054;-77
2021/12/10 00:03:17;;;;;;;42.20;24.95;;;4.30;91.90;;;;;;4906683;29;20075;-77
2021/12/10 00:05:48;;;;;;;42.63;22.83;;;4.20;91.90;;;;;;4889577;29;20044;-77
2021/12/10 00:08:15;;;;;;;43.10;22.92;;;4.30;91.90;;;;;;4890463;29;20048;-76
2021/12/10 00:10:45;;;;;;;43.80;24.83;;;4.20;91.80;;;;;;4880842;29;20123;-76
2021/12/10 00:13:12;;;;;;;48.72;25.02;;;4.30;91.80;;;;;;4913703;29;20047;-76
2021/12/10 00:15:39;;;;;;;54.63;26.33;;;4.30;91.80;;;;;;4912447;29;20451;-77
2021/12/10 00:18:07;;;;;;;39.90;24.67;;;4.20;91.80;;;;;;4908913;29;20051;-77
2021/12/10 00:20:35;;;;;;;49.95;25.63;;;4.20;91.80;;;;;;4895562;29;20088;-77
2021/12/10 00:23:08;;;;;;;45.30;22.88;;;4.30;91.80;;;;;;4877140;29;20150;-76
2021/12/10 00:25:39;;;;;;;50.05;24.55;;;4.20;91.80;;;;;;4910292;29;20044;-76
2021/12/10 00:28:17;;;;;;;48.42;25.60;;;4.30;91.80;;;;;;4891999;29;20126;-77
2021/12/10 00:31:17;;;;;;;50.97;26.02;;;4.30;91.80;;;;;;4892354;29;20557;-77
2021/12/10 00:34:00;;;;;;;48.25;25.77;;;4.30;91.80;;;;;;4882186;29;20040;-76
2021/12/10 00:36:28;;;;;;;54.47;26.70;;;4.20;91.80;;;;;;4890296;29;20044;-77
2021/12/10 00:38:54;;;;;;;48.85;25.17;;;4.30;91.70;;;;;;4893498;29;20043;-76
2021/12/10 00:41:23;;;;;;;43.25;24.80;;;4.30;91.70;;;;;;4891771;29;20507;-77
2021/12/10 00:43:49;;;;;;;47.35;25.23;;;4.30;91.60;;;;;;4893510;29;20052;-77
2021/12/10 00:46:16;;;;;;;55.03;25.00;;;4.30;91.60;;;;;;4907790;29;20048;-77
2021/12/10 00:48:42;;;;;;;48.20;24.08;;;4.30;91.50;;;;;;4876972;29;20048;-76
2021/12/10 00:51:12;;;;;;;53.00;26.25;;;4.30;91.50;;;;;;4877927;29;20044;-77
2021/12/10 00:53:38;;;;;;;55.47;26.25;;;4.30;91.50;;;;;;4891866;29;20075;-76
2021/12/10 00:56:05;;;;;;;43.42;24.33;;;4.30;91.40;;;;;;4877130;29;20048;-77
2021/12/10 00:58:32;;;;;;;52.92;26.25;;;4.30;91.40;;;;;;4885391;29;20610;-77
2021/12/10 01:01:04;;;;;;;43.08;24.60;;;4.30;91.40;;;;;;4892026;29;20044;-77
2021/12/10 01:03:37;;;;;;;41.83;25.38;;;4.30;91.40;;;;;;4877973;29;20371;-77
2021/12/10 01:06:11;;;;;;;56.63;26.33;;;4.30;91.50;;;;;;4892168;29;20051;-77
2021/12/10 01:08:41;;;;;;;39.22;23.45;;;4.30;91.50;;;;;;4892060;29;20509;-77
2021/12/10 01:11:14;;;;;;;46.75;23.48;;;4.30;91.50;;;;;;4891863;29;20048;-77
2021/12/10 01:13:43;;;;;;;41.67;23.15;;;4.30;91.50;;;;;;4894283;29;20403;-77
2021/12/10 01:24:52;;;;;;;36.53;20.98;;;4.30;91.50;;;;;;4892088;29;20048;-76
2021/12/10 01:27:33;;;;;;;;;;;4.30;91.50;;;;;;4887120;29;20063;-77
2021/12/10 01:30:01;;;;;;;38.15;23.33;;;4.30;91.50;;;;;;4881243;29;19969;-77
2021/12/10 01:32:31;;;;;;;43.38;24.05;;;4.30;91.50;;;;;;4892202;29;20048;-76
2021/12/10 01:34:58;;;;;;;;;;;4.30;91.60;;;;;;4893281;29;20128;-77
2021/12/10 01:37:24;;;;;;;47.25;24.02;;;4.30;91.60;;;;;;4891634;29;20393;-77
2021/12/10 01:39:51;;;;;;;47.78;23.25;;;4.30;91.60;;;;;;4891107;29;20060;-77
2021/12/10 01:44:53;;;;;;;45.88;23.67;;;4.30;91.70;;;;;;4892237;29;20059;-77
2021/12/10 01:47:25;;;;;;;55.35;25.00;;;4.20;91.70;;;;;;4888329;29;20132;-76
2021/12/10 01:49:54;;;;;;;51.10;25.33;;;4.20;91.70;;;;;;4891908;29;20071;-76
2021/12/10 01:52:21;;;;;;;54.22;25.98;;;4.30;91.80;;;;;;4894093;29;20100;-77
2021/12/10 01:54:55;;;;;;;39.13;23.83;;;4.20;91.70;;;;;;4895082;29;20140;-77
2021/12/10 01:57:25;;;;;;;45.50;22.88;;;4.20;91.70;;;;;;4885097;29;20127;-77
2021/12/10 01:59:52;;;;;;;51.42;24.55;;;4.30;91.70;;;;;;4896129;29;20055;-77
2021/12/10 02:02:22;;;;;;;48.33;24.00;;;4.30;91.60;;;;;;4879943;29;20251;-77
2021/12/10 02:04:48;;;;;;;42.30;21.33;;;4.30;91.60;;;;;;4881576;29;20403;-77
2021/12/10 02:07:18;;;;;;;54.08;22.85;;;4.30;91.50;;;;;;4862230;29;20144;-77
2021/12/10 02:09:44;;;;;;;41.38;20.77;;;4.30;91.50;;;;;;4896745;29;20042;-77
2021/12/10 02:12:10;;;;;;;45.00;22.63;;;4.30;91.50;;;;;;4879253;29;20499;-76
2021/12/10 02:14:36;;;;;;;56.20;22.70;;;4.30;91.50;;;;;;4880976;29;20083;-77
2021/12/10 02:17:02;;;;;;;39.40;24.35;;;4.30;91.50;;;;;;4896136;29;20063;-77
2021/12/10 02:19:28;;;;;;;43.05;22.80;;;4.30;91.60;;;;;;4893837;29;20040;-76
2021/12/10 02:21:55;;;;;;;54.35;26.42;;;4.30;91.60;;;;;;4880506;29;20056;-77
2021/12/10 02:24:21;;;;;;;50.72;24.77;;;4.30;91.60;;;;;;4895039;29;20107;-77
2021/12/10 02:26:52;;;;;;;39.08;22.05;;;4.30;91.60;;;;;;4896299;29;20514;-76
2021/12/10 02:29:21;;;;;;;42.60;21.92;;;4.30;91.60;;;;;;4894446;29;20461;-76
2021/12/10 02:31:47;;;;;;;40.42;21.67;;;4.30;91.50;;;;;;4895278;29;20036;-77
2021/12/10 02:34:13;;;;;;;45.10;22.92;;;4.20;91.50;;;;;;4895139;29;20040;-77
2021/12/10 02:36:42;;;;;;;42.63;22.50;;;4.30;92.00;;;;;;4861329;29;20081;-77
2021/12/10 02:39:13;;;;;;;43.80;23.42;;;4.30;91.60;;;;;;4895785;29;20048;-76
2021/12/10 02:41:41;;;;;;;47.42;22.40;;;4.30;91.90;;;;;;4894362;29;20048;-77
2021/12/10 02:44:10;;;;;;;37.10;20.95;;;4.30;91.40;;;;;;4887866;29;20052;-77
2021/12/10 02:46:36;;;;;;;44.90;21.92;;;4.30;91.50;;;;;;4892124;29;20123;-77
2021/12/10 02:49:05;;;;;;;44.10;22.63;;;4.30;91.50;;;;;;4902052;29;20059;-77
2021/12/10 02:51:32;;;;;;;45.17;20.80;;;4.30;91.40;;;;;;4910903;29;20066;-76
2021/12/10 02:53:59;;;;;;;35.08;20.67;;;4.30;91.40;;;;;;4894329;29;20561;-76
2021/12/10 02:56:25;;;;;;;44.72;20.15;;;4.30;91.40;;;;;;4894154;29;20048;-77
2021/12/10 02:58:54;;;;;;;35.40;21.02;;;4.30;91.30;;;;;;4894440;29;20102;-77
2021/12/10 03:01:30;;;;;;;42.42;18.48;;;4.40;91.20;;;;;;4894852;29;20098;-77
2021/12/10 03:03:56;;;;;;;32.35;20.27;;;4.40;91.00;;;;;;4875104;29;20079;-77
2021/12/10 03:06:22;;;;;;;39.58;20.58;;;4.40;90.90;;;;;;4863587;29;20456;-77
2021/12/10 03:08:50;;;;;;;32.83;17.58;;;4.40;90.90;;;;;;4895059;29;20036;-76
2021/12/10 03:11:23;;;;;;;35.45;18.17;;;4.30;90.90;;;;;;4894069;29;20084;-77
2021/12/10 03:13:49;;;;;;;34.70;17.55;;;4.30;90.80;;;;;;4912665;29;20407;-77
2021/12/10 03:16:16;;;;;;;33.72;18.15;;;4.30;90.70;;;;;;4889227;29;20634;-77
2021/12/10 03:18:42;;;;;;;30.92;17.35;;;4.40;90.70;;;;;;4872504;29;20083;-76
2021/12/10 03:21:11;;;;;;;32.63;17.90;;;4.30;90.70;;;;;;4893469;29;20052;-76
2021/12/10 03:23:43;;;;;;;31.83;16.73;;;4.30;90.50;;;;;;4895312;29;20040;-77
2021/12/10 03:26:11;;;;;;;35.55;18.38;;;4.20;90.40;;;;;;4893319;29;20044;-77
2021/12/10 03:28:40;;;;;;;33.85;16.05;;;4.30;90.40;;;;;;4902087;29;20369;-77
2021/12/10 03:31:06;;;;;;;37.90;17.42;;;4.30;90.30;;;;;;4874877;29;20503;-76
2021/12/10 03:33:33;;;;;;;39.00;17.50;;;4.40;90.20;;;;;;4894131;29;20130;-76
2021/12/10 03:36:00;;;;;;;28.13;15.07;;;4.40;90.00;;;;;;4894971;29;20048;-76
2021/12/10 03:38:26;;;;;;;26.80;14.98;;;4.40;89.80;;;;;;4893588;29;20044;-76
2021/12/10 03:40:54;;;;;;;22.15;12.40;;;4.30;89.50;;;;;;4877653;29;20044;-76
2021/12/10 03:43:21;;;;;;;27.13;14.27;;;4.40;89.20;;;;;;4892900;29;20080;-76
2021/12/10 03:45:51;;;;;;;26.60;14.45;;;4.40;88.90;;;;;;4894280;29;20131;-76
2021/12/10 03:48:21;;;;;;;24.73;12.80;;;4.40;88.50;;;;;;4894329;29;20044;-76
2021/12/10 03:50:49;;;;;;;26.40;15.52;;;4.40;88.70;;;;;;4893143;29;20129;-76
2021/12/10 03:53:17;;;;;;;31.48;17.35;;;4.40;89.00;;;;;;4893599;29;20091;-76
2021/12/10 03:55:43;;;;;;;46.60;20.17;;;4.40;89.80;;;;;;4893117;29;20499;-77
2021/12/10 03:58:10;;;;;;;34.75;20.15;;;4.30;90.10;;;;;;4893896;29;20515;-76
2021/12/10 04:00:42;;;;;;;44.45;19.40;;;4.30;90.30;;;;;;4893949;29;20044;-76
2021/12/10 04:03:09;;;;;;;46.53;21.23;;;4.30;90.50;;;;;;4893261;29;20381;-76
2021/12/10 04:05:35;;;;;;;38.70;19.70;;;4.30;90.60;;;;;;4894567;29;20051;-76
2021/12/10 04:08:01;;;;;;;37.63;19.95;;;4.20;90.40;;;;;;4892599;29;20044;-77
2021/12/10 04:10:27;;;;;;;32.33;18.17;;;4.30;90.40;;;;;;4894047;29;20060;-77
2021/12/10 04:12:55;;;;;;;41.58;18.33;;;4.30;90.30;;;;;;4877300;29;20172;-77
2021/12/10 04:15:23;;;;;;;33.40;17.45;;;4.30;90.30;;;;;;4878734;29;20056;-76
2021/12/10 04:17:56;;;;;;;36.33;18.48;;;4.30;90.30;;;;;;4892832;29;20406;-77
2021/12/10 04:20:25;;;;;;;36.10;20.02;;;4.20;90.30;;;;;;4870499;29;20055;-77
2021/12/10 04:22:52;;;;;;;37.17;19.73;;;4.20;90.50;;;;;;4894345;29;20139;-77
2021/12/10 04:25:21;;;;;;;41.10;21.02;;;4.30;90.60;;;;;;4892197;29;20775;-76
2021/12/10 04:27:48;;;;;;;32.45;20.45;;;4.20;90.60;;;;;;4901049;29;20510;-77
2021/12/10 04:30:15;;;;;;;36.47;21.08;;;4.20;90.70;;;;;;4900930;29;20041;-77
2021/12/10 04:32:42;;;;;;;48.90;21.80;;;4.20;90.70;;;;;;4910733;29;20044;-76
2021/12/10 04:35:10;;;;;;;42.40;22.77;;;4.20;90.80;;;;;;4893173;29;20135;-76
2021/12/10 04:37:36;;;;;;;41.35;21.45;;;4.20;90.80;;;;;;4901452;29;20170;-77
2021/12/10 04:40:05;;;;;;;45.22;21.00;;;4.20;90.90;;;;;;4894760;29;20116;-77
2021/12/10 04:42:31;;;;;;;40.22;19.00;;;4.10;90.80;;;;;;4908188;29;20054;-77
2021/12/10 04:45:00;;;;;;;43.47;22.60;;;4.20;90.80;;;;;;4889881;29;20063;-77
2021/12/10 04:47:28;;;;;;;49.17;23.73;;;4.20;90.80;;;;;;4908524;29;20772;-77
2021/12/10 04:49:54;;;;;;;39.63;21.83;;;4.20;90.90;;;;;;4909438;29;20077;-76
2021/12/10 04:52:21;;;;;;;38.88;22.15;;;4.20;90.90;;;;;;4908451;29;20087;-76
2021/12/10 04:54:48;;;;;;;46.33;23.42;;;4.20;90.90;;;;;;4923281;29;20440;-77
2021/12/10 04:57:15;;;;;;;40.58;20.67;;;4.20;90.90;;;;;;4907087;29;20119;-76
2021/12/10 04:59:42;;;;;;;39.33;23.45;;;4.10;91.00;;;;;;4906937;29;20484;-76
2021/12/10 05:02:10;;;;;;;39.55;22.23;;;4.10;90.90;;;;;;4896056;29;20083;-76
2021/12/10 05:04:38;;;;;;;40.85;22.92;;;4.10;90.90;;;;;;4892288;29;20052;-76
2021/12/10 05:07:06;;;;;;;40.85;20.85;;;4.20;90.80;;;;;;4892150;29;20072;-76
2021/12/10 05:09:32;;;;;;;38.67;19.98;;;4.20;90.80;;;;;;4875248;29;20048;-76
2021/12/10 05:12:01;;;;;;;40.80;21.58;;;4.20;90.70;;;;;;4876185;29;20406;-76
2021/12/10 05:14:28;;;;;;;36.65;21.15;;;4.10;90.60;;;;;;4893295;29;20100;-77
2021/12/10 05:16:58;;;;;;;34.85;18.85;;;4.20;90.50;;;;;;4892021;29;20059;-76
2021/12/10 05:19:27;;;;;;;39.22;18.70;;;4.20;90.50;;;;;;4893439;29;20052;-77
2021/12/10 05:21:53;;;;;;;40.38;21.15;;;4.20;90.70;;;;;;4891410;29;20045;-77
2021/12/10 05:24:19;;;;;;;30.98;19.58;;;4.20;90.50;;;;;;4908968;29;20099;-77
2021/12/10 05:26:46;;;;;;;31.67;21.13;;;4.10;90.50;;;;;;4908728;29;20047;-77
2021/12/10 05:29:12;;;;;;;36.60;21.63;;;4.20;90.50;;;;;;4895963;29;20083;-76
2021/12/10 05:31:40;;;;;;;45.75;21.90;;;4.20;90.50;;;;;;4898319;29;20036;-76
2021/12/10 05:34:07;;;;;;;38.75;20.90;;;4.10;90.50;;;;;;4895048;29;20048;-76
2021/12/10 05:36:33;;;;;;;37.60;21.17;;;4.10;90.50;;;;;;4896649;29;20091;-77
2021/12/10 05:38:59;;;;;;;39.28;21.48;;;4.10;90.50;;;;;;4879799;29;20040;-76
2021/12/10 05:41:25;;;;;;;33.35;19.80;;;4.10;90.50;;;;;;4896536;29;20093;-76
2021/12/10 05:43:51;;;;;;;30.48;17.90;;;4.10;90.40;;;;;;4911622;29;20075;-77
2021/12/10 05:46:18;;;;;;;31.38;18.50;;;4.10;90.30;;;;;;4895455;29;20040;-77
2021/12/10 05:48:44;;;;;;;36.60;19.83;;;4.20;90.20;;;;;;4896689;29;20118;-77
2021/12/10 05:51:11;;;;;;;38.20;18.90;;;4.10;90.00;;;;;;4911327;29;20048;-77
2021/12/10 05:53:37;;;;;;;28.08;18.27;;;4.10;89.90;;;;;;4881303;29;20048;-77
2021/12/10 05:56:03;;;;;;;30.08;17.38;;;4.10;90.10;;;;;;4895162;29;20412;-77
2021/12/10 05:58:29;;;;;;;32.22;18.70;;;4.10;89.90;;;;;;4895460;29;20447;-77
2021/12/10 06:01:03;;;;;;;29.95;17.92;;;4.00;89.60;;;;;;4895014;29;20045;-77
2021/12/10 06:03:30;;;;;;;46.42;21.02;;;4.00;89.60;;;;;;4899367;29;20055;-76
2021/12/10 06:05:56;;;;;;;29.33;14.82;;;4.00;89.50;;;;;;4912084;29;20115;-76
2021/12/10 06:08:23;;;;;;;24.05;15.75;;;4.00;89.30;;;;;;4910996;29;20060;-76
2021/12/10 06:10:51;;;;;;;36.20;16.67;;;3.90;89.10;;;;;;4911963;29;20080;-76
2021/12/10 06:13:17;;;;;;;29.45;18.30;;;3.90;89.10;;;;;;4910084;29;20058;-77
2021/12/10 06:15:43;;;;;;;37.80;18.25;;;3.70;89.10;;;;;;4880808;29;20044;-76
2021/12/10 06:18:10;;;;;;;32.45;19.00;;;3.70;89.30;;;;;;4910542;29;20052;-77
2021/12/10 06:20:40;;;;;;;36.40;19.60;;;3.70;89.60;;;;;;4895605;29;20059;-77
2021/12/10 06:23:07;;;;;;;28.60;17.60;;;3.60;89.80;;;;;;4896338;29;20056;-76
2021/12/10 06:25:35;;;;;;;26.58;15.88;;;3.60;90.00;;;;;;4895741;29;20496;-76
2021/12/10 06:28:02;;;;;;;31.10;19.75;;;3.60;90.10;;;;;;4912113;29;20048;-77
2021/12/10 06:30:32;;;;;;;30.17;17.67;;;3.60;90.10;;;;;;4894471;29;20124;-77
2021/12/10 06:33:00;;;;;;;35.83;17.23;;;3.60;90.10;;;;;;4897318;29;20048;-77
2021/12/10 06:35:29;;;;;;;29.33;16.38;;;3.60;90.00;;;;;;4878480;29;20036;-77
2021/12/10 06:37:56;;;;;;;32.03;18.42;;;3.60;89.90;;;;;;4894151;29;20550;-77
2021/12/10 06:40:25;;;;;;;34.70;17.88;;;3.60;89.80;;;;;;4894323;29;20127;-77
2021/12/10 06:42:52;;;;;;;29.40;16.58;;;3.60;89.90;;;;;;4911103;29;20154;-77
2021/12/10 06:45:20;;;;;;;28.83;16.80;;;3.50;89.80;;;;;;4895700;29;20040;-77
2021/12/10 06:47:48;;;;;;;23.75;15.98;;;3.50;89.80;;;;;;4892862;29;20503;-77
2021/12/10 06:50:22;;;;;;;23.92;17.17;;;3.50;90.00;;;;;;4895785;29;20048;-77
2021/12/10 06:52:48;;;;;;;22.10;16.48;;;3.40;89.90;;;;;;4894266;29;20075;-77
2021/12/10 06:55:16;;;;;;;35.20;17.00;;;3.40;89.90;;;;;;4911222;29;20080;-77
2021/12/10 06:57:43;;;;;;;21.35;14.50;;;3.30;90.00;;;;;;4911321;29;20056;-77
2021/12/10 07:00:36;;;;;;;21.38;14.77;;;3.20;89.90;;;;;;4894545;29;20036;-78
2021/12/10 07:03:02;;;;;;;28.30;14.40;;;3.10;89.60;;;;;;4886790;29;20047;-76
2021/12/10 07:05:28;;;;;;;29.33;15.02;;;3.00;89.90;;;;;;4893482;29;20044;-77
2021/12/10 07:07:54;;;;;;;21.02;14.45;;;3.00;90.00;;;;;;4911821;29;20076;-77
2021/12/10 07:10:20;;;;;;;21.60;14.48;;;2.90;90.10;;;;;;4893859;29;20139;-77
2021/12/10 07:12:47;;;;;;;21.55;14.68;;;2.80;90.30;;;;;;4894877;29;20044;-77
2021/12/10 07:15:15;;;;;;;26.65;13.93;;;2.80;90.20;;;;;;4895690;29;20482;-77
2021/12/10 07:17:43;;;;;;;20.73;13.07;;;2.70;90.30;;;;;;4892739;29;20036;-77
2021/12/10 07:20:12;;;;;;;20.58;13.80;;;2.70;90.40;;;;;;4895835;29;20048;-77
2021/12/10 07:22:38;;;;;;;22.90;13.20;;;2.70;90.50;;;;;;4893134;29;20056;-77
2021/12/10 07:25:05;;;;;;;20.05;13.30;;;2.60;90.60;;;;;;4864580;29;20040;-77
2021/12/10 07:27:31;;;;;;;25.92;12.90;;;2.60;90.60;;;;;;4892517;29;20131;-77
2021/12/10 07:29:57;;;;;;;24.13;13.43;;;2.60;90.80;;;;;;4894049;29;20130;-77
2021/12/10 07:32:23;;;;;;;19.65;13.55;;;2.60;90.80;;;;;;4911257;29;20040;-77
2021/12/10 07:34:50;;;;;;;21.63;13.15;;;2.50;90.70;;;;;;4893400;29;20063;-77
2021/12/10 07:37:15;;;;;;;20.90;12.10;;;2.50;90.60;;;;;;4891098;29;20091;-77
2021/12/10 07:39:41;;;;;;;17.25;12.50;;;2.50;90.70;;;;;;4892937;29;20441;-77
2021/12/10 07:42:08;;;;;;;26.25;13.35;;;2.50;90.70;;;;;;4894473;29;20055;-77
2021/12/10 07:44:35;;;;;;;18.00;12.02;;;2.50;90.60;;;;;;4892171;29;20606;-77
2021/12/10 07:47:09;;;;;;;16.60;11.00;;;2.40;90.50;;;;;;4894739;29;20072;-77
2021/12/10 07:49:37;;;;;;;19.25;11.38;;;2.40;90.60;;;;;;4894094;29;20056;-77
2021/12/10 07:52:07;;;;;;;20.20;11.73;;;2.40;90.70;;;;;;4892877;29;20180;-77
2021/12/10 07:54:33;;;;;;;19.83;11.73;;;2.40;90.60;;;;;;4894690;29;20502;-77
2021/12/10 07:56:59;;;;;;;18.80;10.13;;;2.40;90.70;;;;;;4892873;29;20089;-77
2021/12/10 07:59:25;;;;;;;19.88;10.27;;;2.40;90.70;;;;;;4894946;29;20083;-77
2021/12/10 08:01:51;;;;;;;16.55;11.40;;;2.40;90.70;;;;;;4918625;29;20044;-77
2021/12/10 08:04:17;;;;;;;19.30;11.35;;;2.40;90.80;;;;;;4894135;29;20059;-77
2021/12/10 08:06:43;;;;;;;20.58;11.93;;;2.40;91.00;;;;;;4901689;29;20052;-77
2021/12/10 08:09:09;;;;;;;19.65;11.52;;;2.50;91.00;;;;;;4893249;29;20146;-77
2021/12/10 08:11:37;;;;;;;19.13;10.57;;;2.50;91.00;;;;;;4897592;29;20506;-77
2021/12/10 08:14:02;;;;;;;20.08;11.23;;;2.60;91.00;;;;;;4892567;29;20036;-77
2021/12/10 08:16:30;;;;;;;20.95;10.82;;;2.70;90.90;;;;;;4898033;29;20055;-77
2021/12/10 08:18:57;;;;;;;24.15;10.68;;;2.70;90.70;;;;;;4876666;29;20052;-77
2021/12/10 08:21:24;;;;;;;16.88;10.13;;;2.80;90.60;;;;;;4878483;29;20090;-77
2021/12/10 08:23:53;;;;;;;19.67;10.95;;;2.80;90.50;;;;;;4877994;29;20491;-78
2021/12/10 08:26:19;;;;;;;19.48;10.93;;;2.90;90.40;;;;;;4890318;29;20044;-77
2021/12/10 08:28:45;;;;;;;17.30;9.18;;;2.90;90.30;;;;;;4908486;29;20060;-77
2021/12/10 08:31:14;;;;;;;16.83;11.23;;;3.00;90.20;;;;;;4891686;29;20040;-77
2021/12/10 08:33:42;;;;;;;15.13;10.50;;;3.00;90.00;;;;;;4894317;29;20059;-77
2021/12/10 08:36:09;;;;;;;19.23;11.40;;;3.00;90.00;;;;;;4909149;29;20063;-77
2021/12/10 08:38:37;;;;;;;12.73;9.63;;;3.00;89.50;;;;;;4924064;29;20051;-77
2021/12/10 08:41:10;;;;;;;17.15;10.75;;;3.00;89.20;;;;;;4904758;29;20051;-77
2021/12/10 08:43:36;;;;;;;11.98;8.77;;;3.00;88.80;;;;;;4905798;29;20087;-77
2021/12/10 08:46:04;;;;;;;18.48;9.23;;;3.00;88.40;;;;;;4911527;29;20035;-78
2021/12/10 08:48:31;;;;;;;13.38;9.63;;;3.00;88.40;;;;;;4906288;29;20521;-77
2021/12/10 08:51:00;;;;;;;11.85;8.32;;;3.00;88.30;;;;;;4901953;29;20055;-77
2021/12/10 08:53:26;;;;;;;10.98;8.90;;;3.00;88.40;;;;;;4894347;29;20466;-77
2021/12/10 08:55:55;;;;;;;12.68;7.80;;;3.00;88.40;;;;;;4902881;29;20127;-77
2021/12/10 08:58:21;;;;;;;15.23;8.70;;;3.00;88.50;;;;;;4909546;29;20075;-77
2021/12/10 09:00:55;;;;;;;14.02;7.38;;;2.90;88.40;;;;;;4907779;29;20036;-77
2021/12/10 09:03:21;;;;;;;17.95;10.15;;;3.00;88.40;;;;;;4905440;29;20037;-77
2021/12/10 09:05:47;;;;;;;12.73;9.02;;;2.90;88.30;;;;;;4922590;29;20394;-77
2021/12/10 09:08:14;;;;;;;17.80;9.50;;;2.90;88.50;;;;;;4899369;29;20047;-77
2021/12/10 09:10:43;;;;;;;12.85;8.75;;;3.00;88.60;;;;;;4906996;29;20044;-77
2021/12/10 09:13:14;;;;;;;22.33;9.05;;;3.00;88.70;;;;;;4893550;29;20048;-77
2021/12/10 09:15:48;;;;;;;14.82;9.27;;;3.00;88.40;;;;;;4892346;29;20048;-73
2021/12/10 09:18:15;;;;;;;16.17;8.55;;;3.00;88.30;;;;;;4888804;29;20487;-73
2021/12/10 09:20:46;;;;;;;13.80;8.70;;;3.00;88.40;;;;;;4910989;29;20501;-73
2021/12/10 09:23:19;;;;;;;14.52;8.25;;;3.10;88.50;;;;;;4882719;29;20052;-72
2021/12/10 09:25:45;;;;;;;16.23;9.25;;;3.10;88.50;;;;;;4899454;29;20059;-73
2021/12/10 09:28:11;;;;;;;14.30;8.25;;;3.10;88.40;;;;;;4886708;29;20074;-73
2021/12/10 09:30:41;;;;;;;13.90;9.73;;;3.20;88.20;;;;;;4907111;29;20550;-73
2021/12/10 09:33:07;;;;;;;10.90;8.35;;;3.20;88.20;;;;;;4906210;29;20052;-72
2021/12/10 09:35:35;;;;;;;11.77;8.68;;;3.20;87.70;;;;;;4906317;29;20496;-73
2021/12/10 09:38:04;;;;;;;16.42;8.90;;;3.30;87.70;;;;;;4894348;29;20071;-72
2021/12/10 09:40:34;;;;;;;12.88;6.35;;;3.40;87.20;;;;;;4906892;29;20052;-73
2021/12/10 09:43:01;;;;;;;13.13;9.37;;;3.40;87.20;;;;;;4923261;29;20046;-73
2021/12/10 09:45:33;;;;;;;10.18;7.90;;;3.50;87.90;;;;;;4902973;29;20296;-73
2021/12/10 09:48:00;;;;;;;12.52;7.65;;;3.50;87.00;;;;;;4890634;29;20078;-73
2021/12/10 09:50:29;;;;;;;6.68;4.32;;;3.50;86.70;;;;;;4889103;29;20048;-72
2021/12/10 09:52:55;;;;;;;13.25;7.90;;;3.60;86.60;;;;;;4917173;29;20096;-77
2021/12/10 09:55:23;;;;;;;8.48;7.32;;;3.60;86.00;;;;;;4907334;29;20050;-73
2021/12/10 09:57:50;;;;;;;13.77;8.95;;;3.70;86.00;;;;;;4902297;29;20130;-73
2021/12/10 10:00:28;;;;;;;13.50;8.57;;;3.70;85.60;;;;;;4909401;29;20047;-73
2021/12/10 10:02:56;;;;;;;18.63;9.43;;;3.80;85.10;;;;;;4904836;29;20056;-73
2021/12/10 10:05:27;;;;;;;10.65;8.13;;;3.80;85.40;;;;;;4892028;29;20059;-73
2021/12/10 10:07:57;;;;;;;12.55;7.63;;;3.90;85.90;;;;;;4890380;29;20196;-72
2021/12/10 10:10:24;;;;;;;14.10;8.45;;;3.90;85.30;;;;;;4888773;29;20187;-73
2021/12/10 10:12:55;;;;;;;13.40;7.78;;;3.90;85.10;;;;;;4877126;29;20054;-73
2021/12/10 10:15:28;;;;;;;12.18;7.28;;;3.90;85.10;;;;;;4910822;29;20965;-73
2021/12/10 10:17:58;;;;;;;11.65;6.82;;;4.00;84.80;;;;;;4895741;29;20853;-72
2021/12/10 10:20:26;;;;;;;11.38;7.63;;;4.00;84.90;;;;;;4895892;29;20074;-72
2021/12/10 10:22:52;;;;;;;11.73;7.40;;;4.00;84.60;;;;;;4895355;29;20095;-73
2021/12/10 10:25:23;;;;;;;16.45;7.63;;;4.10;84.20;;;;;;4881421;29;20529;-72
2021/12/10 10:27:49;;;;;;;6.35;4.25;;;4.10;84.60;;;;;;4910121;29;20051;-73
2021/12/10 10:30:25;;;;;;;10.02;5.78;;;4.20;83.90;;;;;;4896346;29;20044;-73
2021/12/10 10:32:54;;;;;;;9.23;6.38;;;4.10;82.70;;;;;;4893758;29;20188;-73
2021/12/10 10:35:27;;;;;;;10.23;6.72;;;4.10;82.40;;;;;;4896354;29;20059;-73
2021/12/10 10:37:55;;;;;;;9.32;7.40;;;4.10;82.50;;;;;;4894901;29;20056;-73
2021/12/10 10:40:25;;;;;;;11.93;6.80;;;4.10;82.30;;;;;;4894094;29;20171;-73
2021/12/10 10:42:55;;;;;;;9.98;6.70;;;4.00;82.00;;;;;;4880474;29;20111;-73
2021/12/10 10:45:26;;;;;;;8.88;6.28;;;4.00;82.60;;;;;;4894636;29;20079;-73
2021/12/10 10:47:57;;;;;;;10.18;5.07;;;4.00;82.80;;;;;;4912665;29;20062;-72
2021/12/10 10:50:35;;;;;;;10.02;7.07;;;3.90;81.90;;;;;;4894246;29;20048;-73
2021/12/10 10:53:08;;;;;;;9.05;6.47;;;3.90;82.80;;;;;;4869075;29;20052;-73
2021/12/10 10:55:39;;;;;;;8.82;6.38;;;4.00;82.40;;;;;;4896325;29;20048;-73
2021/12/10 10:58:12;;;;;;;7.35;6.28;;;4.00;83.20;;;;;;4889151;29;20479;-73
2021/12/10 11:00:59;;;;;;;9.40;6.68;;;4.10;82.50;;;;;;4895060;29;20051;-72
2021/12/10 11:03:39;;;;;;;14.25;7.50;;;4.10;81.70;;;;;;4890787;29;20060;-73
2021/12/10 11:06:13;;;;;;;12.47;6.63;;;4.20;81.60;;;;;;4894660;29;20052;-73
2021/12/10 11:08:43;;;;;;;9.40;5.65;;;4.30;80.70;;;;;;4894952;29;20323;-72
2021/12/10 11:11:17;;;;;;;10.20;6.20;;;4.30;80.80;;;;;;4893373;29;20506;-73
2021/12/10 11:13:49;;;;;;;14.95;6.13;;;4.30;80.90;;;;;;4902084;29;20039;-73
2021/12/10 11:16:25;;;;;;;10.48;6.43;;;4.40;80.60;;;;;;4923815;29;20692;-72
2021/12/10 11:19:30;;;;;;;9.20;5.82;;;4.40;80.20;;;;;;4916444;29;20044;-72
2021/12/10 11:21:56;;;;;;;8.98;6.10;;;4.50;80.70;;;;;;4893149;29;20048;-72
2021/12/10 11:24:34;;;;;;;7.60;5.47;;;4.50;79.10;;;;;;4926460;29;20051;-72
2021/12/10 11:27:27;;;;;;;18.17;6.95;;;4.60;79.20;;;;;;4909196;29;20103;-73
2021/12/10 11:29:59;;;;;;;8.98;6.00;;;4.60;79.40;;;;;;4927566;29;20047;-73
2021/12/10 11:32:39;;;;;;;7.95;5.97;;;4.70;78.50;;;;;;4909353;29;20052;-73
2021/12/10 11:35:25;;;;;;;6.13;4.87;;;4.70;79.10;;;;;;4903471;29;20051;-73
2021/12/10 11:38:04;;;;;;;6.50;5.40;;;4.70;78.70;;;;;;4905927;29;20388;-72
2021/12/10 11:40:52;;;;;;;7.80;6.28;;;4.70;78.20;;;;;;4879752;29;20040;-72
2021/12/10 11:48:55;;;;;;;6.53;5.60;;;4.60;77.70;;;;;;4908542;29;20371;-72
2021/12/10 11:51:27;;;;;;;6.10;5.43;;;4.60;77.80;;;;;;4911225;29;20509;-73
2021/12/10 11:54:00;;;;;;;12.95;5.22;;;4.60;77.40;;;;;;4894479;29;20593;-72
2021/12/10 11:56:43;;;;;;;8.68;5.85;;;4.60;77.10;;;;;;4893817;29;20052;-72
2021/12/10 11:59:09;;;;;;;8.90;5.97;;;4.70;77.40;;;;;;4891842;29;20487;-72
2021/12/10 12:01:50;;;;;;;7.45;5.35;;;4.70;77.60;;;;;;4877981;29;20087;-73
2021/12/10 12:04:25;;;;;;;7.88;5.65;;;4.70;77.40;;;;;;4893902;29;20114;-72
2021/12/10 12:07:13;;;;;;;12.57;5.88;;;4.80;77.60;;;;;;4891996;29;20495;-72
2021/12/10 12:09:41;;;;;;;9.82;5.93;;;4.90;77.50;;;;;;4904440;29;20387;-73
2021/12/10 12:12:13;;;;;;;8.48;5.20;;;4.90;77.10;;;;;;4891716;29;20040;-72
2021/12/10 12:14:48;;;;;;;9.35;5.13;;;4.90;76.70;;;;;;4910167;29;20044;-72
2021/12/10 12:17:29;;;;;;;8.05;5.65;;;4.90;75.50;;;;;;4893411;29;20056;-72
2021/12/10 12:19:56;;;;;;;9.80;4.93;;;4.80;75.90;;;;;;4891235;29;20135;-73
2021/12/10 12:25:29;;;;;;;6.63;5.00;;;4.90;75.80;;;;;;4908622;29;20055;-72
2021/12/10 12:28:11;;;;;;;8.45;5.30;;;4.90;75.70;;;;;;4892528;29;20044;-73
2021/12/10 12:30:52;;;;;;;6.38;5.00;;;4.90;75.50;;;;;;4899163;29;20486;-72
2021/12/10 12:33:18;;;;;;;9.00;4.80;;;4.90;75.60;;;;;;4898551;29;20043;-72
2021/12/10 12:35:45;;;;;;;7.95;5.35;;;5.00;74.50;;;;;;4922433;29;20091;-72
2021/12/10 12:38:17;;;;;;;9.88;5.20;;;5.00;75.40;;;;;;4898923;29;20871;-72
2021/12/10 12:40:48;;;;;;;9.85;5.60;;;5.00;75.30;;;;;;4905559;29;20050;-72
2021/12/10 12:43:15;;;;;;;8.52;5.40;;;5.10;75.00;;;;;;4901543;29;20276;-72
2021/12/10 12:45:42;;;;;;;7.63;4.53;;;5.10;74.60;;;;;;4890580;29;20510;-72
2021/12/10 12:48:11;;;;;;;7.93;4.15;;;5.20;74.20;;;;;;4907166;29;20605;-72
2021/12/10 12:50:39;;;;;;;8.60;4.80;;;5.20;73.80;;;;;;4893564;29;20051;-72
2021/12/10 12:53:15;;;;;;;4.43;3.90;;;5.20;73.60;;;;;;4909344;29;20595;-73
2021/12/10 12:55:49;;;;;;;7.07;4.45;;;5.20;73.50;;;;;;4896653;29;20479;-72
2021/12/10 12:58:35;;;;;;;6.38;4.32;;;5.20;73.10;;;;;;4891654;29;20159;-72
2021/12/10 13:01:22;;;;;;;6.60;4.68;;;5.30;73.80;;;;;;4891945;29;20495;-72
2021/12/10 13:04:03;;;;;;;6.70;5.03;;;5.30;73.60;;;;;;4890645;29;20052;-72
2021/12/10 13:06:45;;;;;;;6.05;4.45;;;5.40;73.80;;;;;;4892919;29;20448;-72
2021/12/10 13:09:19;;;;;;;5.97;4.60;;;5.40;73.10;;;;;;4891939;29;20052;-72
2021/12/10 13:11:54;;;;;;;9.70;4.65;;;5.30;72.80;;;;;;4891571;29;20079;-72
2021/12/10 13:14:29;;;;;;;7.05;3.50;;;5.30;73.30;;;;;;4880631;29;20486;-72